createdAt,value
2023-01-30T00:00:06.161Z,0.92
2023-01-30T00:05:29.258Z,0.98
2023-01-30T00:10:32.478Z,0.99
2023-01-30T00:15:36.702Z,0.99
2023-01-30T00:20:40.106Z,1.01
2023-01-30T00:25:46.217Z,1.05
2023-01-30T00:30:51.289Z,1.08
2023-01-30T00:35:56.475Z,1.06
2023-01-30T00:40:59.814Z,1.02
2023-01-30T00:46:28.152Z,0.95
2023-01-30T00:51:31.311Z,0.92
2023-01-30T00:56:35.038Z,0.92
2023-01-30T01:01:38.581Z,0.93
2023-01-30T01:06:41.848Z,0.93
2023-01-30T01:11:45.171Z,0.96
2023-01-30T01:16:48.554Z,0.96
2023-01-30T01:21:52.069Z,0.95
2023-01-30T01:26:55.514Z,0.99
2023-01-30T01:31:58.841Z,0.96
2023-01-30T01:37:02.447Z,0.98
2023-01-30T01:42:16.658Z,1.05
2023-01-30T01:47:20.947Z,1.05
2023-01-30T01:52:24.355Z,1.08
2023-01-30T01:57:34.872Z,1.10
2023-01-30T02:02:59.786Z,1.16
2023-01-30T02:08:07.915Z,1.15
2023-01-30T02:13:11.287Z,1.06
2023-01-30T02:18:15.624Z,0.92
2023-01-30T02:23:43.941Z,0.84
2023-01-30T02:29:07.710Z,0.83
2023-01-30T02:34:35.222Z,0.81
2023-01-30T02:40:01.333Z,0.80
2023-01-30T02:45:30.328Z,0.75
2023-01-30T02:50:36.167Z,0.73
2023-01-30T02:55:41.178Z,0.67
2023-01-30T03:00:47.507Z,0.67
2023-01-30T03:06:05.459Z,0.65
2023-01-30T03:11:10.836Z,0.61
2023-01-30T03:16:41.207Z,0.57
2023-01-30T03:21:46.067Z,0.49
2023-01-30T03:26:55.288Z,0.48
2023-01-30T03:31:58.725Z,0.44
2023-01-30T03:37:03.283Z,0.43
2023-01-30T03:42:10.497Z,0.39
2023-01-30T03:47:15.224Z,0.42
2023-01-30T03:52:18.826Z,0.38
2023-01-30T03:57:22.167Z,0.34
2023-01-30T04:02:26.525Z,0.31
2023-01-30T04:07:30.534Z,0.31
2023-01-30T04:12:34.148Z,0.25
2023-01-30T04:17:38.002Z,0.15
2023-01-30T04:23:01.738Z,0.05
2023-01-30T04:28:07.154Z,0.00
2023-01-30T04:33:13.450Z,-0.05
2023-01-30T04:38:16.705Z,-0.14
2023-01-30T04:43:22.216Z,-0.24
2023-01-30T04:48:28.547Z,-0.30
2023-01-30T04:53:33.188Z,-0.30
2023-01-30T04:58:36.692Z,-0.33
2023-01-30T05:03:39.970Z,-0.30
2023-01-30T05:08:44.786Z,-0.27
2023-01-30T05:13:50.219Z,-0.26
2023-01-30T05:18:53.517Z,-0.24
2023-01-30T05:23:57.693Z,-0.21
2023-01-30T05:29:01.177Z,-0.18
2023-01-30T05:34:05.229Z,-0.19
2023-01-30T05:39:08.882Z,-0.16
2023-01-30T05:44:12.697Z,-0.14
2023-01-30T05:49:22.750Z,-0.10
2023-01-30T05:54:26.128Z,-0.03
2023-01-30T05:59:29.411Z,-0.01
2023-01-30T06:04:32.686Z,0.05
2023-01-30T06:09:35.980Z,0.08
2023-01-30T06:14:39.498Z,0.10
2023-01-30T06:19:42.742Z,0.13
2023-01-30T06:24:46.186Z,0.12
2023-01-30T06:29:49.523Z,0.13
2023-01-30T06:34:52.813Z,0.17
2023-01-30T06:39:56.185Z,0.23
2023-01-30T06:44:59.478Z,0.24
2023-01-30T06:50:03.016Z,0.29
2023-01-30T06:55:06.978Z,0.35
2023-01-30T07:00:16.407Z,0.37
2023-01-30T07:05:20.042Z,0.36
2023-01-30T07:10:24.048Z,0.42
2023-01-30T07:15:27.725Z,0.50
2023-01-30T07:20:31.609Z,0.59
2023-01-30T07:25:35.005Z,0.68
2023-01-30T07:30:38.445Z,0.73
2023-01-30T07:35:41.922Z,0.80
2023-01-30T07:40:45.365Z,0.88
2023-01-30T07:45:49.422Z,0.89
2023-01-30T07:50:56.976Z,0.91
2023-01-30T07:56:01.179Z,0.91
2023-01-30T08:01:05.087Z,0.98
2023-01-30T08:06:08.781Z,1.05
2023-01-30T08:11:12.291Z,1.07
2023-01-30T08:16:15.793Z,1.12
2023-01-30T08:21:20.100Z,1.15
2023-01-30T08:26:24.109Z,1.17
2023-01-30T08:31:28.355Z,1.24
2023-01-30T08:36:33.009Z,1.26
2023-01-30T08:41:36.901Z,1.35
2023-01-30T08:46:41.015Z,1.47
2023-01-30T08:51:45.258Z,1.55
2023-01-30T08:56:52.661Z,1.66
2023-01-30T09:01:57.411Z,1.72
2023-01-30T09:07:00.729Z,1.76
2023-01-30T09:12:04.466Z,1.80
2023-01-30T09:17:07.810Z,1.83
2023-01-30T09:22:11.159Z,1.83
2023-01-30T09:27:15.491Z,1.87
2023-01-30T09:32:19.214Z,1.95
2023-01-30T09:37:23.450Z,2.05
2023-01-30T09:42:59.250Z,2.10
2023-01-30T09:48:30.466Z,2.07
2023-01-30T09:53:43.291Z,2.05
2023-01-30T09:58:53.791Z,2.05
2023-01-30T10:04:19.523Z,2.07
2023-01-30T10:09:41.677Z,2.08
2023-01-30T10:15:05.707Z,2.11
2023-01-30T10:20:33.552Z,2.12
2023-01-30T10:25:39.628Z,2.13
2023-01-30T10:30:46.572Z,2.16
2023-01-30T10:36:08.654Z,2.25
2023-01-30T10:41:20.070Z,2.32
2023-01-30T10:46:48.929Z,2.40
2023-01-30T10:52:13.031Z,2.48
2023-01-30T10:57:17.819Z,2.53
2023-01-30T11:02:31.955Z,2.50
2023-01-30T11:07:36.445Z,2.44
2023-01-30T11:12:43.928Z,2.35
2023-01-30T11:17:50.091Z,2.31
2023-01-30T11:23:27.630Z,2.27
2023-01-30T11:28:40.520Z,2.19
2023-01-30T11:34:02.540Z,2.08
2023-01-30T11:39:16.520Z,1.97
2023-01-30T11:44:29.473Z,1.95
2023-01-30T11:49:47.297Z,1.96
2023-01-30T11:55:14.082Z,1.94
2023-01-30T12:00:23.051Z,1.93
2023-01-30T12:05:37.978Z,1.96
2023-01-30T12:10:46.007Z,2.07
2023-01-30T12:16:07.859Z,2.20
2023-01-30T12:21:28.470Z,2.33
2023-01-30T12:26:54.034Z,2.42
2023-01-30T12:32:10.471Z,2.48
2023-01-30T12:37:19.916Z,2.53
2023-01-30T12:42:57.219Z,2.55
2023-01-30T12:48:24.397Z,2.62
2023-01-30T12:53:55.735Z,2.75
2023-01-30T12:59:19.490Z,2.82
2023-01-30T13:05:07.482Z,2.85
2023-01-30T13:10:23.749Z,2.85
2023-01-30T13:15:33.310Z,2.76
2023-01-30T13:21:00.687Z,2.74
2023-01-30T13:26:16.548Z,2.80
2023-01-30T13:31:23.993Z,2.81
2023-01-30T13:36:53.077Z,2.87
2023-01-30T13:41:59.815Z,3.37
2023-01-30T13:47:23.174Z,3.45
2023-01-30T13:52:26.880Z,3.28
2023-01-30T13:57:42.125Z,3.21
2023-01-30T14:03:05.272Z,3.12
2023-01-30T14:08:22.394Z,3.04
2023-01-30T14:13:30.648Z,3.02
2023-01-30T14:18:40.749Z,3.00
2023-01-30T14:23:59.124Z,2.99
2023-01-30T14:29:03.861Z,3.06
2023-01-30T14:34:40.581Z,3.09
2023-01-30T14:39:52.218Z,3.14
2023-01-30T14:45:00.952Z,3.15
2023-01-30T14:50:19.150Z,3.11
2023-01-30T14:55:30.296Z,3.10
2023-01-30T15:00:38.079Z,3.17
2023-01-30T15:05:47.316Z,3.24
2023-01-30T15:11:13.341Z,3.27
2023-01-30T15:16:38.889Z,3.30
2023-01-30T15:22:14.455Z,3.33
2023-01-30T15:27:32.697Z,3.39
2023-01-30T15:32:36.811Z,3.46
2023-01-30T15:37:48.433Z,3.50
2023-01-30T15:42:58.864Z,3.50
2023-01-30T15:48:34.850Z,3.51
2023-01-30T15:53:45.149Z,3.50
2023-01-30T15:58:50.207Z,3.50
2023-01-30T16:03:55.598Z,3.54
2023-01-30T16:09:06.337Z,3.62
2023-01-30T16:14:18.841Z,3.62
2023-01-30T16:19:29.750Z,3.61
2023-01-30T16:24:37.016Z,3.62
2023-01-30T16:29:51.452Z,3.61
2023-01-30T16:35:17.722Z,3.54
2023-01-30T16:40:25.905Z,3.53
2023-01-30T16:45:38.102Z,3.53
2023-01-30T16:50:43.808Z,3.57
2023-01-30T16:56:10.212Z,3.61
2023-01-30T17:01:14.174Z,3.62
2023-01-30T17:06:40.107Z,3.60
2023-01-30T17:11:44.293Z,3.61
2023-01-30T17:17:08.495Z,3.58
2023-01-30T17:22:24.784Z,3.62
2023-01-30T17:27:30.576Z,3.61
2023-01-30T17:32:35.449Z,3.64
2023-01-30T17:37:40.317Z,3.71
2023-01-30T17:42:45.346Z,3.76
2023-01-30T17:47:50.882Z,3.83
2023-01-30T17:52:55.658Z,3.86
2023-01-30T17:58:01.645Z,3.88
2023-01-30T18:03:05.941Z,3.88
2023-01-30T18:08:09.875Z,3.91
2023-01-30T18:13:14.172Z,3.95
2023-01-30T18:18:18.667Z,3.96
2023-01-30T18:23:22.039Z,3.91
2023-01-30T18:28:26.425Z,3.91
2023-01-30T18:33:33.129Z,3.92
2023-01-30T18:38:36.695Z,3.96
2023-01-30T18:43:40.241Z,4.04
2023-01-30T18:48:45.127Z,3.97
2023-01-30T18:53:51.375Z,3.96
2023-01-30T18:58:56.546Z,3.94
2023-01-30T19:04:02.093Z,3.93
2023-01-30T19:09:17.403Z,3.89
2023-01-30T19:14:20.860Z,3.87
2023-01-30T19:19:25.011Z,3.94
2023-01-30T19:24:28.368Z,4.02
2023-01-30T19:29:31.691Z,4.08
2023-01-30T19:34:35.128Z,4.06
2023-01-30T19:39:38.492Z,4.08
2023-01-30T19:44:42.954Z,4.10
2023-01-30T19:49:46.244Z,4.10
2023-01-30T19:54:49.738Z,4.14
2023-01-30T19:59:53.047Z,4.15
2023-01-30T20:04:57.434Z,4.15
2023-01-30T20:10:00.930Z,4.17
2023-01-30T20:15:06.195Z,4.24
2023-01-30T20:20:10.666Z,4.29
2023-01-30T20:26:26.630Z,4.35
2023-01-30T20:31:31.057Z,4.43
2023-01-30T20:36:34.720Z,4.40
2023-01-30T20:41:38.808Z,4.37
2023-01-30T20:46:45.012Z,4.37
2023-01-30T20:51:51.278Z,4.33
2023-01-30T20:56:54.664Z,4.36
2023-01-30T21:01:58.025Z,4.31
2023-01-30T21:07:01.696Z,4.25
2023-01-30T21:12:05.608Z,4.17
2023-01-30T21:17:09.118Z,4.19
2023-01-30T21:22:12.402Z,4.18
2023-01-30T21:27:15.631Z,4.16
2023-01-30T21:32:19.399Z,4.13
2023-01-30T21:37:41.213Z,4.11
2023-01-30T21:43:03.555Z,4.08
2023-01-30T21:48:06.876Z,4.07
2023-01-30T21:53:10.120Z,4.17
2023-01-30T21:58:13.529Z,4.22
2023-01-30T22:03:16.839Z,4.17
2023-01-30T22:08:20.001Z,4.20
2023-01-30T22:13:23.306Z,4.15
2023-01-30T22:18:26.506Z,4.10
2023-01-30T22:23:38.543Z,4.08
2023-01-30T22:28:42.032Z,4.12
2023-01-30T22:33:51.517Z,4.24
2023-01-30T22:38:55.445Z,4.33
2023-01-30T22:43:59.980Z,4.33
2023-01-30T22:49:05.584Z,4.35
2023-01-30T22:54:16.120Z,4.35
2023-01-30T22:59:19.776Z,4.34
2023-01-30T23:04:23.882Z,4.31
2023-01-30T23:09:27.287Z,4.29
2023-01-30T23:14:30.563Z,4.31
2023-01-30T23:19:33.720Z,4.38
2023-01-30T23:24:37.105Z,4.34
2023-01-30T23:29:40.313Z,4.22
2023-01-30T23:34:43.542Z,4.16
2023-01-30T23:39:46.870Z,4.15
2023-01-30T23:44:53.221Z,4.14
2023-01-30T23:49:56.579Z,4.17
2023-01-30T23:55:00.176Z,4.28
